Polkville, Mississippi
Current Conditions -  °F | °C
As of 6:54 PM on Friday 28 Nov 2014 (Local Time) from KJAN Reporting Station
Clear Clear  
Wind Chill: 41°   Ceiling: Unl
Heat Index: 45°   Visibility: 10mi
Dew Point: 30°   Wind: 7mph
Humidity: 56%   Direction: 160°SSE
Pressure: 30.23"   Gusts: NA
Location:  32.4637°N, 89.5548°W
Report Text: KJAN 290054Z 16006KT 10SM CLR 07/M01 A3023 RMK AO2 SLP240 T00721011
Loading
Personal Weather Stations






























Interactive Weather Map New forecast layout! Learn more

10-Day Weather Forecast

Advertisements
Track Severe Weather on mobile